Terminal Aerodrome Forecast
Issued by NWS Jacksonville, FL

Home | Current Version | Previous Version | Text Only | Print | Product List | Glossary On
Versions: 1 2 3 4 5 6 7 8 9 10 11 12 13 14 15 16 17 18 19 20 21 22 23 24 25 26 27 28
000
FTUS42 KJAX 230800 AAB
TAFGNV
TAF AMD
KGNV 230800Z 2308/2406 03005KT 4SM -RA BR BKN007 OVC040
     FM231000 03006KT 1SM +RA BR VCTS BKN005 OVC015CB
      TEMPO 2310/2314 3SM RA BR SCT005 BKN010 OVC030
     FM231500 06009KT 5SM -RA BR SCT015 BKN025 OVC060
     FM240100 03006KT 5SM -RA BR SCT004 BKN009 OVC015=

USA.gov is the U.S. government's official web portal to all federal, state and local government web resources and services.